Mountain Home, ID (83647)

4:09 AM MST on February 14, 2016 (GMT -0700)
Mountain Home Air Force Base | | Change Station
CLOSE
Current Station
Airport
Location: Mountain Home,
Elevation: 2995 ft
Nearby Weather Stations

Elev 2995 ft 43.04 °N, 115.87 °W | Updated 11 minutes ago

Rain
Rain
40 °F
Feels Like 40 °F
N
0
Wind Variable Wind from North

Today
High -- | Low -- °F
--% Chance of Precip.
Yesterday
High -- | Low -- °F
Precip. -- in
Pressure 30.25 in
Visibility 10.0 miles
Clouds Scattered Clouds 2800 ft
Overcast 3800 ft
Dew Point 36 °F
Humidity 87%
Rainfall 0.04 in
Snow Depth Not available.
7:42 AM 6:12 PM
Waxing Crescent, 40% visible
METAR KMUO 141058Z AUTO 00000KT 10SM -RA SCT028 OVC038 04/02 A3022 RMK AO2 SLP241 P0004 T00420022 $
Pressure 30.25 in
Visibility 10.0 miles
Clouds Scattered Clouds 2800 ft
Overcast 3800 ft
Dew Point 36 °F
Humidity 87%
Rainfall 0.04 in
Snow Depth Not available.
7:42 AM 6:12 PM
Waxing Crescent, 40% visible
METAR KMUO 141058Z AUTO 00000KT 10SM -RA SCT028 OVC038 04/02 A3022 RMK AO2 SLP241 P0004 T00420022 $

10-Day Weather Forecast

Almanac

Astronomy

Feb. 14, 2016 Rise Set
Actual Time
Civil Twilight
Nautical Twilight
Astronomical Twilight
Moon
Length of Visible Light
Length of Day
Tomorrow will be .
, % of the Moon is Illuminated

Today's Extremes

State Highs State Lows

Community

WunderPhotos

Upload Photos

1,892,765 photos uploaded!

WunderBlog® & News

Nearby

Air Quality

  Air Quality AQ Index Pollutant
Not available.

Snow Depth

Station Depth Elevation

Earthquake Activity

City Distance Mag. Time & Date
Minimum magnitude displayed is 2.5.

Coastal Water Temperatures

Place Temperature

Stations

Nearby Weather Stations

Station Location Temp. Windchill Dew Point Humidity Wind Precip. Elev Updated Type
                   

Watches & Warnings

There are currently no watches in effect.